Time;durP1;ratioP1;P1;durP2;ratioP2;P2;SDS_P1;SDS_P2;PMS_P1;PMS_P2;Temp;Humidity;BMP_temperature;BMP_pressure;BME280_temperature;BME280_humidity;BME280_pressure;Samples;Min_cycle;Max_cycle;Signal;HPM_P1;HPM_P2
2023/07/07 00:01:50;;;;;;;9.32;6.78;;;;;;;;;;4887290;29;20044;-81
2023/07/07 00:04:17;;;;;;;7.47;6.45;;;;;;;;;;4888737;29;20568;-81
2023/07/07 00:06:43;;;;;;;7.95;6.53;;;;;;;;;;4876916;29;20166;-82
2023/07/07 00:09:09;;;;;;;14.00;7.20;;;;;;;;;;4862172;29;20078;-82
2023/07/07 00:11:35;;;;;;;11.60;6.57;;;;;;;;;;4880673;29;20039;-81
2023/07/07 00:14:01;;;;;;;10.73;7.20;;;;;;;;;;4883059;29;20044;-81
2023/07/07 00:16:28;;;;;;;10.13;7.80;;;;;;;;;;4904428;29;20059;-80
2023/07/07 00:18:57;;;;;;;11.15;7.80;;;;;;;;;;4885153;29;20063;-81
2023/07/07 00:21:24;;;;;;;12.57;7.28;;;;;;;;;;4904164;29;20048;-80
2023/07/07 00:23:55;;;;;;;12.13;8.18;;;;;;;;;;4890797;29;20154;-80
2023/07/07 00:26:22;;;;;;;10.15;7.60;;;;;;;;;;4893787;29;20068;-80
2023/07/07 00:28:48;;;;;;;11.85;7.68;;;;;;;;;;4894335;29;20108;-81
2023/07/07 00:31:15;;;;;;;11.88;7.43;;;;;;;;;;4891045;29;20041;-81
2023/07/07 00:33:41;;;;;;;10.38;7.05;;;;;;;;;;4875649;29;20111;-81
2023/07/07 00:36:07;;;;;;;9.63;6.90;;;;;;;;;;4891972;29;20111;-81
2023/07/07 00:38:33;;;;;;;10.18;7.13;;;;;;;;;;4893084;29;20052;-81
2023/07/07 00:41:00;;;;;;;14.70;7.30;;;;;;;;;;4880442;29;20055;-81
2023/07/07 00:43:26;;;;;;;9.55;7.43;;;;;;;;;;4875459;29;20044;-81
2023/07/07 00:45:53;;;;;;;12.88;7.68;;;;;;;;;;4892558;29;20210;-81
2023/07/07 00:48:21;;;;;;;9.60;7.53;;;;;;;;;;4881756;29;20037;-82
2023/07/07 00:50:50;;;;;;;11.35;7.57;;;;;;;;;;4873418;29;20926;-81
2023/07/07 00:53:16;;;;;;;11.43;7.15;;;;;;;;;;4871154;29;20036;-80
2023/07/07 00:55:45;;;;;;;11.75;7.47;;;;;;;;;;4872996;29;22179;-82
2023/07/07 00:58:12;;;;;;;12.90;7.38;;;;;;;;;;4881288;29;20049;-82
2023/07/07 01:00:41;;;;;;;10.82;7.03;;;;;;;;;;4869196;29;20822;-81
2023/07/07 01:03:10;;;;;;;10.30;7.65;;;;;;;;;;4889600;29;20068;-82
2023/07/07 01:05:37;;;;;;;11.40;8.10;;;;;;;;;;4877249;29;20076;-81
2023/07/07 01:08:06;;;;;;;11.52;7.80;;;;;;;;;;4856079;29;20123;-81
2023/07/07 01:10:32;;;;;;;8.90;7.57;;;;;;;;;;4874400;29;20040;-80
2023/07/07 01:12:59;;;;;;;10.27;7.55;;;;;;;;;;4867337;29;20076;-81
2023/07/07 01:15:27;;;;;;;11.05;7.57;;;;;;;;;;4893394;29;20044;-80
2023/07/07 01:17:53;;;;;;;14.27;7.75;;;;;;;;;;4872367;29;20155;-81
2023/07/07 01:20:25;;;;;;;11.18;8.00;;;;;;;;;;4886052;29;20391;-81
2023/07/07 01:23:10;;;;;;;12.35;8.93;;;;;;;;;;4885166;29;20048;-80
2023/07/07 01:25:45;;;;;;;13.73;7.68;;;;;;;;;;4887972;29;21945;-80
2023/07/07 01:28:31;;;;;;;12.63;8.40;;;;;;;;;;4876467;29;20052;-80
2023/07/07 01:31:28;;;;;;;14.27;9.00;;;;;;;;;;4874520;29;20048;-81
2023/07/07 01:33:54;;;;;;;13.73;8.80;;;;;;;;;;4876846;29;20060;-80
2023/07/07 01:36:20;;;;;;;15.63;10.20;;;;;;;;;;4865520;29;20954;-81
2023/07/07 01:38:47;;;;;;;14.02;9.95;;;;;;;;;;4875047;29;20040;-81
2023/07/07 01:41:17;;;;;;;19.02;10.02;;;;;;;;;;4895486;29;20117;-80
2023/07/07 01:43:59;;;;;;;11.90;10.18;;;;;;;;;;4878384;29;20046;-80
2023/07/07 01:46:30;;;;;;;12.00;9.77;;;;;;;;;;4870229;29;20056;-80
2023/07/07 01:48:58;;;;;;;17.77;9.77;;;;;;;;;;4888488;29;20048;-80
2023/07/07 01:51:26;;;;;;;14.25;10.57;;;;;;;;;;4869048;29;20044;-80
2023/07/07 01:53:53;;;;;;;12.73;9.85;;;;;;;;;;4886772;29;20083;-81
2023/07/07 01:56:23;;;;;;;14.68;10.30;;;;;;;;;;4887272;29;20056;-81
2023/07/07 01:58:49;;;;;;;16.63;11.18;;;;;;;;;;4875926;29;20070;-82
2023/07/07 02:01:15;;;;;;;13.00;10.73;;;;;;;;;;4886543;29;20060;-81
2023/07/07 02:03:42;;;;;;;15.10;10.50;;;;;;;;;;4865973;29;20051;-81
2023/07/07 02:06:08;;;;;;;19.73;10.65;;;;;;;;;;4889342;29;20163;-81
2023/07/07 02:08:34;;;;;;;20.33;10.50;;;;;;;;;;4883581;29;20115;-81
2023/07/07 02:11:00;;;;;;;18.48;11.30;;;;;;;;;;4888923;29;20067;-81
2023/07/07 02:13:26;;;;;;;15.43;11.48;;;;;;;;;;4889305;29;20036;-80
2023/07/07 02:15:52;;;;;;;21.70;12.07;;;;;;;;;;4890189;29;20061;-80
2023/07/07 02:18:19;;;;;;;14.40;10.85;;;;;;;;;;4855153;29;20052;-81
2023/07/07 02:20:45;;;;;;;17.58;12.38;;;;;;;;;;4885438;29;20103;-81
2023/07/07 02:23:11;;;;;;;13.40;10.73;;;;;;;;;;4888305;29;20052;-80
2023/07/07 02:25:37;;;;;;;19.65;11.13;;;;;;;;;;4889138;29;20080;-82
2023/07/07 02:28:04;;;;;;;12.98;11.43;;;;;;;;;;4889877;29;20048;-81
2023/07/07 02:30:30;;;;;;;18.70;13.00;;;;;;;;;;4873458;29;20044;-80
2023/07/07 02:32:57;;;;;;;19.92;13.18;;;;;;;;;;4888918;29;20060;-82
2023/07/07 02:35:23;;;;;;;20.80;12.75;;;;;;;;;;4871532;29;20052;-81
2023/07/07 02:37:49;;;;;;;13.90;12.43;;;;;;;;;;4883154;29;20044;-80
2023/07/07 02:40:15;;;;;;;18.08;12.20;;;;;;;;;;4857310;29;20052;-80
2023/07/07 02:42:42;;;;;;;19.38;12.07;;;;;;;;;;4868469;29;20174;-81
2023/07/07 02:45:08;;;;;;;17.65;12.45;;;;;;;;;;4875713;29;20044;-80
2023/07/07 02:47:34;;;;;;;14.40;12.90;;;;;;;;;;4885087;29;20058;-80
2023/07/07 02:50:00;;;;;;;15.82;13.57;;;;;;;;;;4884919;29;20162;-81
2023/07/07 02:52:28;;;;;;;21.25;13.50;;;;;;;;;;4888067;29;20048;-80
2023/07/07 02:54:54;;;;;;;16.70;12.77;;;;;;;;;;4884889;29;20066;-80
2023/07/07 02:57:20;;;;;;;19.95;13.90;;;;;;;;;;4885833;29;20053;-80
2023/07/07 02:59:46;;;;;;;15.52;13.52;;;;;;;;;;4884085;29;20108;-80
2023/07/07 03:02:12;;;;;;;16.10;13.48;;;;;;;;;;4869052;29;20051;-80
2023/07/07 03:04:39;;;;;;;16.60;13.45;;;;;;;;;;4855662;29;21924;-80
2023/07/07 03:07:05;;;;;;;19.75;13.85;;;;;;;;;;4886769;29;20044;-80
2023/07/07 03:09:31;;;;;;;16.23;13.15;;;;;;;;;;4873150;29;20374;-80
2023/07/07 03:11:57;;;;;;;14.55;12.65;;;;;;;;;;4887188;29;20943;-80
2023/07/07 03:14:23;;;;;;;19.42;13.23;;;;;;;;;;4884217;29;20048;-80
2023/07/07 03:16:51;;;;;;;20.83;13.23;;;;;;;;;;4871532;29;20135;-80
2023/07/07 03:19:21;;;;;;;15.35;13.20;;;;;;;;;;4856897;29;20048;-80
2023/07/07 03:21:47;;;;;;;19.90;13.20;;;;;;;;;;4870597;29;20408;-81
2023/07/07 03:24:14;;;;;;;19.92;13.68;;;;;;;;;;4871802;29;20047;-81
2023/07/07 03:26:40;;;;;;;19.63;13.82;;;;;;;;;;4870234;29;20044;-81
2023/07/07 03:29:07;;;;;;;16.10;12.93;;;;;;;;;;4870189;29;20048;-81
2023/07/07 03:31:33;;;;;;;19.70;13.88;;;;;;;;;;4880071;29;20081;-79
2023/07/07 03:34:00;;;;;;;19.65;13.80;;;;;;;;;;4885063;29;20052;-80
2023/07/07 03:36:27;;;;;;;18.10;13.68;;;;;;;;;;4871940;29;20127;-80
2023/07/07 03:38:55;;;;;;;18.40;13.98;;;;;;;;;;4883465;29;20048;-80
2023/07/07 03:41:23;;;;;;;22.73;13.93;;;;;;;;;;4867277;29;20123;-80
2023/07/07 03:43:49;;;;;;;20.65;14.35;;;;;;;;;;4881769;29;20048;-79
2023/07/07 03:46:17;;;;;;;19.45;13.75;;;;;;;;;;4861329;29;20119;-79
2023/07/07 03:48:44;;;;;;;19.05;14.20;;;;;;;;;;4881621;29;20172;-80
2023/07/07 03:51:12;;;;;;;21.13;14.80;;;;;;;;;;4864994;29;20052;-80
2023/07/07 03:53:38;;;;;;;21.48;14.73;;;;;;;;;;4867537;29;20044;-79
2023/07/07 03:56:05;;;;;;;28.08;15.00;;;;;;;;;;4879057;29;20626;-80
2023/07/07 03:58:31;;;;;;;25.63;15.20;;;;;;;;;;4870099;29;20129;-79
2023/07/07 04:01:04;;;;;;;19.80;14.30;;;;;;;;;;4881418;29;20044;-80
2023/07/07 04:03:30;;;;;;;20.47;14.20;;;;;;;;;;4881353;29;20056;-79
2023/07/07 04:05:57;;;;;;;20.80;15.18;;;;;;;;;;4850708;29;20312;-80
2023/07/07 04:08:24;;;;;;;22.33;14.05;;;;;;;;;;4888434;29;20055;-80
2023/07/07 04:11:01;;;;;;;20.80;14.73;;;;;;;;;;4876027;29;20040;-79
2023/07/07 04:13:28;;;;;;;27.70;14.93;;;;;;;;;;4895175;29;20051;-79
2023/07/07 04:15:58;;;;;;;22.17;15.82;;;;;;;;;;4894041;29;20044;-79
2023/07/07 04:18:24;;;;;;;26.92;16.73;;;;;;;;;;4883678;29;20052;-80
2023/07/07 04:20:50;;;;;;;20.35;15.38;;;;;;;;;;4866143;29;20459;-81
2023/07/07 04:23:16;;;;;;;27.65;15.98;;;;;;;;;;4859975;29;20036;-79
2023/07/07 04:25:45;;;;;;;25.13;16.15;;;;;;;;;;4869436;29;20532;-80
2023/07/07 04:28:11;;;;;;;22.55;16.67;;;;;;;;;;4889611;29;20056;-79
2023/07/07 04:30:40;;;;;;;21.85;16.52;;;;;;;;;;4901529;29;20497;-79
2023/07/07 04:33:07;;;;;;;29.15;16.08;;;;;;;;;;4883929;29;20053;-80
2023/07/07 04:35:36;;;;;;;22.30;16.65;;;;;;;;;;4853306;29;20059;-80
2023/07/07 04:38:02;;;;;;;30.63;17.30;;;;;;;;;;4873329;29;20485;-80
2023/07/07 04:40:32;;;;;;;30.63;17.92;;;;;;;;;;4888889;29;20056;-79
2023/07/07 04:42:58;;;;;;;29.05;17.45;;;;;;;;;;4887601;29;20092;-80
2023/07/07 04:45:25;;;;;;;25.05;17.52;;;;;;;;;;4885812;29;20059;-80
2023/07/07 04:47:51;;;;;;;38.92;19.60;;;;;;;;;;4871721;29;20490;-80
2023/07/07 04:50:17;;;;;;;30.30;18.77;;;;;;;;;;4885871;29;20044;-81
2023/07/07 04:52:43;;;;;;;26.48;18.23;;;;;;;;;;4873957;29;20073;-80
2023/07/07 04:55:09;;;;;;;24.70;19.17;;;;;;;;;;4887805;29;20081;-80
2023/07/07 04:57:35;;;;;;;29.45;19.35;;;;;;;;;;4883992;29;20438;-80
2023/07/07 05:00:05;;;;;;;26.08;19.48;;;;;;;;;;4884239;29;20049;-79
2023/07/07 05:02:33;;;;;;;25.88;19.25;;;;;;;;;;4886059;29;20504;-80
2023/07/07 05:04:59;;;;;;;28.58;19.27;;;;;;;;;;4886905;29;20040;-79
2023/07/07 05:07:28;;;;;;;27.63;19.73;;;;;;;;;;4884814;29;20564;-79
2023/07/07 05:09:54;;;;;;;40.42;20.95;;;;;;;;;;4881206;29;20051;-79
2023/07/07 05:12:20;;;;;;;29.65;20.63;;;;;;;;;;4885428;29;20048;-79
2023/07/07 05:14:46;;;;;;;26.98;20.88;;;;;;;;;;4860737;29;20040;-80
2023/07/07 05:17:13;;;;;;;26.73;19.65;;;;;;;;;;4893902;29;20044;-80
2023/07/07 05:19:39;;;;;;;26.60;18.60;;;;;;;;;;4869234;29;21932;-80
2023/07/07 05:22:05;;;;;;;29.95;19.80;;;;;;;;;;4863918;29;20552;-80
2023/07/07 05:24:31;;;;;;;27.20;19.75;;;;;;;;;;4888789;29;20048;-80
2023/07/07 05:26:57;;;;;;;28.25;20.58;;;;;;;;;;4873271;29;20175;-80
2023/07/07 05:29:23;;;;;;;24.95;19.30;;;;;;;;;;4892302;29;20187;-80
2023/07/07 05:31:50;;;;;;;29.65;18.83;;;;;;;;;;4874286;29;20051;-78
2023/07/07 05:34:16;;;;;;;29.73;19.50;;;;;;;;;;4875688;29;20044;-80
2023/07/07 05:36:43;;;;;;;26.92;18.42;;;;;;;;;;4891844;29;20048;-79
2023/07/07 05:39:10;;;;;;;24.48;17.00;;;;;;;;;;4895250;29;20537;-80
2023/07/07 05:41:36;;;;;;;24.63;16.02;;;;;;;;;;4887297;29;20052;-79
2023/07/07 05:44:02;;;;;;;23.77;16.17;;;;;;;;;;4888834;29;20056;-80
2023/07/07 05:46:28;;;;;;;20.85;15.30;;;;;;;;;;4869656;29;20147;-80
2023/07/07 05:48:54;;;;;;;19.60;14.95;;;;;;;;;;4891887;29;20589;-79
2023/07/07 05:51:20;;;;;;;19.65;13.85;;;;;;;;;;4889258;29;20175;-80
2023/07/07 05:53:47;;;;;;;17.45;14.52;;;;;;;;;;4893671;29;20140;-79
2023/07/07 05:56:18;;;;;;;24.45;15.02;;;;;;;;;;4888033;29;20059;-79
2023/07/07 05:58:44;;;;;;;20.90;14.32;;;;;;;;;;4889506;29;20052;-79
2023/07/07 06:01:13;;;;;;;19.60;13.93;;;;;;;;;;4876121;29;22152;-79
2023/07/07 06:03:40;;;;;;;19.98;13.88;;;;;;;;;;4889368;29;20084;-79
2023/07/07 06:06:06;;;;;;;19.55;13.52;;;;;;;;;;4892246;29;20059;-80
2023/07/07 06:08:33;;;;;;;21.38;13.40;;;;;;;;;;4868736;29;20051;-79
2023/07/07 06:10:59;;;;;;;22.40;14.07;;;;;;;;;;4875012;29;20059;-78
2023/07/07 06:13:27;;;;;;;18.08;13.52;;;;;;;;;;4883168;29;20040;-79
2023/07/07 06:15:53;;;;;;;18.90;12.77;;;;;;;;;;4874902;29;20055;-78
2023/07/07 06:18:19;;;;;;;17.30;13.75;;;;;;;;;;4891363;29;20046;-79
2023/07/07 06:20:49;;;;;;;20.10;13.52;;;;;;;;;;4878471;29;20087;-79
2023/07/07 06:23:15;;;;;;;17.38;12.50;;;;;;;;;;4888507;29;20409;-79
2023/07/07 06:25:42;;;;;;;16.05;11.40;;;;;;;;;;4879810;29;20131;-79
2023/07/07 06:28:08;;;;;;;19.40;11.80;;;;;;;;;;4890437;29;20047;-79
2023/07/07 06:30:34;;;;;;;19.27;11.20;;;;;;;;;;4889488;29;22335;-79
2023/07/07 06:33:02;;;;;;;16.10;11.65;;;;;;;;;;4877293;29;20060;-79
2023/07/07 06:35:29;;;;;;;15.27;11.35;;;;;;;;;;4893428;29;20052;-79
2023/07/07 06:37:55;;;;;;;15.68;10.07;;;;;;;;;;4893807;29;20051;-79
2023/07/07 06:40:22;;;;;;;20.42;11.30;;;;;;;;;;4875846;29;20154;-79
2023/07/07 06:42:51;;;;;;;14.15;9.73;;;;;;;;;;4875892;29;20166;-79
2023/07/07 06:45:17;;;;;;;15.63;9.73;;;;;;;;;;4894040;29;20060;-79
2023/07/07 06:47:43;;;;;;;17.17;10.13;;;;;;;;;;4877139;29;21973;-79
2023/07/07 06:50:14;;;;;;;15.52;9.50;;;;;;;;;;4872769;29;20253;-79
2023/07/07 06:52:40;;;;;;;12.27;9.00;;;;;;;;;;4892185;29;20128;-80
2023/07/07 06:55:06;;;;;;;14.60;8.65;;;;;;;;;;4890438;29;20072;-79
2023/07/07 06:57:32;;;;;;;17.63;9.05;;;;;;;;;;4887106;29;20048;-80
2023/07/07 06:59:58;;;;;;;14.48;9.50;;;;;;;;;;4872564;29;20059;-79
2023/07/07 07:02:24;;;;;;;16.25;8.90;;;;;;;;;;4880204;29;20457;-78
2023/07/07 07:04:51;;;;;;;16.15;8.95;;;;;;;;;;4874560;29;20045;-78
2023/07/07 07:07:17;;;;;;;15.70;8.20;;;;;;;;;;4894602;29;20044;-78
2023/07/07 07:09:43;;;;;;;15.88;8.50;;;;;;;;;;4888125;29;20696;-77
2023/07/07 07:12:10;;;;;;;17.92;7.68;;;;;;;;;;4879674;29;20171;-77
2023/07/07 07:14:36;;;;;;;10.30;7.32;;;;;;;;;;4874647;29;20500;-77
2023/07/07 07:17:02;;;;;;;14.07;7.28;;;;;;;;;;4876551;29;20095;-77
2023/07/07 07:19:28;;;;;;;8.82;6.85;;;;;;;;;;4895750;29;20055;-77
2023/07/07 07:21:54;;;;;;;13.82;8.07;;;;;;;;;;4889968;29;20640;-77
2023/07/07 07:24:22;;;;;;;11.20;6.40;;;;;;;;;;4888827;29;20076;-77
2023/07/07 07:26:48;;;;;;;11.90;7.47;;;;;;;;;;4889151;29;20043;-76
2023/07/07 07:29:14;;;;;;;12.50;6.88;;;;;;;;;;4889255;29;20152;-77
2023/07/07 07:31:41;;;;;;;11.55;5.80;;;;;;;;;;4873219;29;20128;-77
2023/07/07 07:34:24;;;;;;;10.07;6.15;;;;;;;;;;4875892;29;20083;-77
2023/07/07 07:36:51;;;;;;;12.93;6.30;;;;;;;;;;4886536;29;20048;-77
2023/07/07 07:39:17;;;;;;;8.77;6.07;;;;;;;;;;4886258;29;20135;-77
2023/07/07 07:41:46;;;;;;;9.05;5.60;;;;;;;;;;4887897;29;20048;-77
2023/07/07 07:44:12;;;;;;;9.93;5.80;;;;;;;;;;4872335;29;20048;-77
2023/07/07 07:46:38;;;;;;;9.95;5.93;;;;;;;;;;4886251;29;20130;-77
2023/07/07 07:49:04;;;;;;;11.40;5.80;;;;;;;;;;4875614;29;20044;-77
2023/07/07 07:51:30;;;;;;;12.35;5.35;;;;;;;;;;4886417;29;20744;-77
2023/07/07 07:53:56;;;;;;;12.88;5.90;;;;;;;;;;4875595;29;20048;-77
2023/07/07 07:56:23;;;;;;;9.57;5.50;;;;;;;;;;4886447;29;20048;-77
2023/07/07 07:58:49;;;;;;;9.10;5.00;;;;;;;;;;4868183;29;20052;-78
2023/07/07 08:01:15;;;;;;;11.38;5.78;;;;;;;;;;4881079;29;20048;-78
2023/07/07 08:03:41;;;;;;;10.48;5.13;;;;;;;;;;4875863;29;20047;-78
2023/07/07 08:06:07;;;;;;;6.40;4.78;;;;;;;;;;4886777;29;20080;-78
2023/07/07 08:08:33;;;;;;;7.03;4.38;;;;;;;;;;4897955;29;20103;-79
2023/07/07 08:10:59;;;;;;;9.45;4.30;;;;;;;;;;4904818;29;20138;-77
2023/07/07 08:13:25;;;;;;;8.05;4.13;;;;;;;;;;4904413;29;20052;-78
2023/07/07 08:15:51;;;;;;;6.07;3.40;;;;;;;;;;4903777;29;20052;-78
2023/07/07 08:18:18;;;;;;;7.53;4.25;;;;;;;;;;4879944;29;20055;-78
2023/07/07 08:20:44;;;;;;;7.22;4.15;;;;;;;;;;4892926;29;20086;-78
2023/07/07 08:23:10;;;;;;;7.25;4.10;;;;;;;;;;4887374;29;20420;-78
2023/07/07 08:25:36;;;;;;;9.98;4.07;;;;;;;;;;4863120;29;20066;-78
2023/07/07 08:28:02;;;;;;;6.47;3.75;;;;;;;;;;4891012;29;20409;-78
2023/07/07 08:30:29;;;;;;;7.05;3.78;;;;;;;;;;4890093;29;22071;-78
2023/07/07 08:32:55;;;;;;;6.30;3.55;;;;;;;;;;4867719;29;20180;-78
2023/07/07 08:35:21;;;;;;;7.38;4.05;;;;;;;;;;4873853;29;20056;-79
2023/07/07 08:37:47;;;;;;;6.97;3.58;;;;;;;;;;4876132;29;20044;-78
2023/07/07 08:40:19;;;;;;;6.65;3.53;;;;;;;;;;4884036;29;20052;-78
2023/07/07 08:42:46;;;;;;;10.18;3.90;;;;;;;;;;4889919;29;20048;-78
2023/07/07 08:45:14;;;;;;;5.35;3.00;;;;;;;;;;4889364;29;20528;-78
2023/07/07 08:47:40;;;;;;;5.18;3.10;;;;;;;;;;4889673;29;20087;-80
2023/07/07 08:50:08;;;;;;;7.15;3.53;;;;;;;;;;4892105;29;20519;-78
2023/07/07 08:52:34;;;;;;;8.98;3.20;;;;;;;;;;4883455;29;20048;-78
2023/07/07 08:55:03;;;;;;;6.85;3.30;;;;;;;;;;4901054;29;20170;-77
2023/07/07 08:57:31;;;;;;;17.30;3.28;;;;;;;;;;4891661;29;20175;-80
2023/07/07 09:00:17;;;;;;;18.38;3.72;;;;;;;;;;4885135;29;20055;-80
2023/07/07 09:03:02;;;;;;;5.18;3.00;;;;;;;;;;4892970;29;20178;-80
2023/07/07 09:05:43;;;;;;;5.15;2.83;;;;;;;;;;4885550;29;20047;-78
2023/07/07 09:08:09;;;;;;;9.48;2.70;;;;;;;;;;4895016;29;20083;-78
2023/07/07 09:10:42;;;;;;;3.72;2.20;;;;;;;;;;4894741;29;20048;-79
2023/07/07 09:13:12;;;;;;;8.07;2.85;;;;;;;;;;4890331;29;20036;-78
2023/07/07 09:15:40;;;;;;;4.47;2.58;;;;;;;;;;4891455;29;20051;-78
2023/07/07 09:18:18;;;;;;;4.22;2.53;;;;;;;;;;4887736;29;20263;-78
2023/07/07 09:20:47;;;;;;;4.45;2.40;;;;;;;;;;4880497;29;20052;-78
2023/07/07 09:23:16;;;;;;;5.93;2.75;;;;;;;;;;4889323;29;20049;-78
2023/07/07 09:25:45;;;;;;;5.75;2.83;;;;;;;;;;4875212;29;20072;-78
2023/07/07 09:28:13;;;;;;;6.53;2.75;;;;;;;;;;4873099;29;20040;-78
2023/07/07 09:30:51;;;;;;;4.40;2.85;;;;;;;;;;4887552;29;20048;-77
2023/07/07 09:33:18;;;;;;;6.07;2.30;;;;;;;;;;4889009;29;20053;-77
2023/07/07 09:36:02;;;;;;;5.45;2.42;;;;;;;;;;4888771;29;20079;-77
2023/07/07 09:38:47;;;;;;;5.43;2.33;;;;;;;;;;4869429;29;20052;-77
2023/07/07 09:41:13;;;;;;;4.40;2.40;;;;;;;;;;4891656;29;20092;-77
2023/07/07 09:43:45;;;;;;;8.13;2.70;;;;;;;;;;4887024;29;20055;-76
2023/07/07 09:46:17;;;;;;;4.60;2.70;;;;;;;;;;4888270;29;21890;-76
2023/07/07 09:48:49;;;;;;;6.25;2.90;;;;;;;;;;4868841;29;20051;-76
2023/07/07 09:51:42;;;;;;;10.55;2.70;;;;;;;;;;4890606;29;20396;-77
2023/07/07 09:54:10;;;;;;;5.10;2.30;;;;;;;;;;4868277;29;20107;-78
2023/07/07 09:56:42;;;;;;;4.68;2.50;;;;;;;;;;4872722;29;20055;-78
2023/07/07 09:59:17;;;;;;;6.20;2.45;;;;;;;;;;4871724;29;20584;-78
2023/07/07 10:02:02;;;;;;;6.07;2.42;;;;;;;;;;4889329;29;20100;-78
2023/07/07 10:04:29;;;;;;;4.32;2.30;;;;;;;;;;4873674;29;20111;-77
2023/07/07 10:06:57;;;;;;;6.18;2.35;;;;;;;;;;4867455;29;21362;-78
2023/07/07 10:09:24;;;;;;;5.47;2.80;;;;;;;;;;4870248;29;20541;-77
2023/07/07 10:11:50;;;;;;;6.32;2.72;;;;;;;;;;4873075;29;20044;-77
2023/07/07 10:14:17;;;;;;;5.15;2.45;;;;;;;;;;4888852;29;20043;-76
2023/07/07 10:16:50;;;;;;;5.07;2.78;;;;;;;;;;4865239;29;20505;-77
2023/07/07 10:19:16;;;;;;;8.30;2.42;;;;;;;;;;4887978;29;20040;-77
2023/07/07 10:21:43;;;;;;;6.28;2.30;;;;;;;;;;4877518;29;20062;-76
2023/07/07 10:24:13;;;;;;;4.57;2.60;;;;;;;;;;4889379;29;20040;-77
2023/07/07 10:26:42;;;;;;;4.65;2.88;;;;;;;;;;4889430;29;22060;-78
2023/07/07 10:29:11;;;;;;;3.33;2.40;;;;;;;;;;4892651;29;20056;-77
2023/07/07 10:31:41;;;;;;;4.78;2.63;;;;;;;;;;4879817;29;20092;-77
2023/07/07 10:34:17;;;;;;;3.85;2.72;;;;;;;;;;4889708;29;20048;-77
2023/07/07 10:36:43;;;;;;;5.57;2.60;;;;;;;;;;4897268;29;20059;-79
2023/07/07 10:39:10;;;;;;;5.47;2.97;;;;;;;;;;4879841;29;20089;-78
2023/07/07 10:41:36;;;;;;;4.00;2.42;;;;;;;;;;4875306;29;20144;-77
2023/07/07 10:44:05;;;;;;;4.75;2.33;;;;;;;;;;4877016;29;20762;-77
2023/07/07 10:46:32;;;;;;;4.25;2.30;;;;;;;;;;4881525;29;20104;-77
2023/07/07 10:48:58;;;;;;;5.82;2.40;;;;;;;;;;4875360;29;20068;-77
2023/07/07 10:51:24;;;;;;;8.90;2.88;;;;;;;;;;4888383;29;20040;-78
2023/07/07 10:53:54;;;;;;;5.55;3.05;;;;;;;;;;4892427;29;22049;-78
2023/07/07 10:56:23;;;;;;;3.75;2.60;;;;;;;;;;4873457;29;20048;-77
2023/07/07 10:58:59;;;;;;;7.15;2.65;;;;;;;;;;4888722;29;20105;-77
2023/07/07 11:01:31;;;;;;;5.03;2.65;;;;;;;;;;4887732;29;20570;-77
2023/07/07 11:04:11;;;;;;;3.90;2.60;;;;;;;;;;4889835;29;20098;-77
2023/07/07 11:06:59;;;;;;;4.20;2.83;;;;;;;;;;4888186;29;20577;-77
2023/07/07 11:09:26;;;;;;;3.53;2.53;;;;;;;;;;4876699;29;20047;-77
2023/07/07 11:11:52;;;;;;;5.68;2.60;;;;;;;;;;4870501;29;20096;-77
2023/07/07 11:14:25;;;;;;;5.90;2.30;;;;;;;;;;4888286;29;20048;-77
2023/07/07 11:16:51;;;;;;;;;;;;;;;;;;4886426;29;20143;-78
2023/07/07 11:19:33;;;;;;;5.32;2.35;;;;;;;;;;4887614;29;20303;-77
2023/07/07 11:22:17;;;;;;;5.05;2.30;;;;;;;;;;4889962;29;20068;-77
2023/07/07 11:24:47;;;;;;;5.53;2.25;;;;;;;;;;4876387;29;20088;-77
2023/07/07 11:27:32;;;;;;;4.88;2.70;;;;;;;;;;4876166;29;20051;-78
2023/07/07 11:29:58;;;;;;;4.75;2.47;;;;;;;;;;4875406;29;20134;-77
2023/07/07 11:32:42;;;;;;;8.82;2.67;;;;;;;;;;4885721;29;20498;-76
2023/07/07 11:35:41;;;;;;;4.75;1.88;;;;;;;;;;4874064;29;20047;-76
2023/07/07 11:38:23;;;;;;;7.63;2.25;;;;;;;;;;4840289;29;20052;-78
2023/07/07 11:41:09;;;;;;;3.05;2.13;;;;;;;;;;4886917;29;20141;-77
2023/07/07 11:43:47;;;;;;;4.43;2.67;;;;;;;;;;4861136;29;20060;-77
2023/07/07 11:46:32;;;;;;;4.57;2.55;;;;;;;;;;4905100;29;20059;-77
2023/07/07 11:48:58;;;;;;;5.93;2.33;;;;;;;;;;4893914;29;20051;-77
2023/07/07 11:51:31;;;;;;;4.35;2.03;;;;;;;;;;4887250;29;20139;-77
2023/07/07 11:54:07;;;;;;;6.53;2.40;;;;;;;;;;4872294;29;20097;-78
2023/07/07 11:56:33;;;;;;;6.18;2.60;;;;;;;;;;4876505;29;20052;-77
2023/07/07 11:59:14;;;;;;;5.53;2.10;;;;;;;;;;4875310;29;20187;-77
2023/07/07 12:01:48;;;;;;;4.20;2.70;;;;;;;;;;4892249;29;20121;-77
2023/07/07 12:04:19;;;;;;;3.75;2.05;;;;;;;;;;4892202;29;20055;-77
2023/07/07 12:07:00;;;;;;;5.65;2.53;;;;;;;;;;4895130;29;24162;-76
2023/07/07 12:09:26;;;;;;;5.53;2.40;;;;;;;;;;4896487;29;20036;-76
2023/07/07 12:11:57;;;;;;;2.55;1.90;;;;;;;;;;4886818;29;20071;-76
2023/07/07 12:14:41;;;;;;;4.32;2.53;;;;;;;;;;4889077;29;20059;-76
2023/07/07 12:17:12;;;;;;;5.43;2.42;;;;;;;;;;4887382;29;20043;-77
2023/07/07 12:19:40;;;;;;;4.22;2.33;;;;;;;;;;4885329;29;20044;-76
2023/07/07 12:22:12;;;;;;;7.97;2.45;;;;;;;;;;4883658;29;20052;-77
2023/07/07 12:24:45;;;;;;;8.30;2.20;;;;;;;;;;4899656;29;20071;-78
2023/07/07 12:27:18;;;;;;;7.10;2.30;;;;;;;;;;4889081;29;20782;-79
2023/07/07 12:29:45;;;;;;;5.60;2.38;;;;;;;;;;4886616;29;20383;-77
2023/07/07 12:32:11;;;;;;;5.97;2.53;;;;;;;;;;4866606;29;20117;-77
2023/07/07 12:34:44;;;;;;;4.43;2.20;;;;;;;;;;4885033;29;22053;-77
2023/07/07 12:37:16;;;;;;;2.88;2.10;;;;;;;;;;4880403;29;20047;-77
2023/07/07 12:39:51;;;;;;;3.70;2.45;;;;;;;;;;4887960;29;20037;-78
2023/07/07 12:42:18;;;;;;;4.00;2.22;;;;;;;;;;4886549;29;20768;-77
2023/07/07 12:44:45;;;;;;;8.40;2.42;;;;;;;;;;4879096;29;20594;-77
2023/07/07 12:47:31;;;;;;;3.58;2.58;;;;;;;;;;4869587;29;22040;-77
2023/07/07 12:49:58;;;;;;;4.32;2.45;;;;;;;;;;4875355;29;20040;-77
2023/07/07 12:52:26;;;;;;;6.25;2.20;;;;;;;;;;4878065;29;20075;-77
2023/07/07 12:54:53;;;;;;;3.70;2.53;;;;;;;;;;4886711;29;20044;-78
2023/07/07 12:57:20;;;;;;;2.92;2.15;;;;;;;;;;4877795;29;20044;-78
2023/07/07 12:59:46;;;;;;;5.20;2.97;;;;;;;;;;4887974;29;20055;-77
2023/07/07 13:02:23;;;;;;;3.00;2.22;;;;;;;;;;4887241;29;21042;-77
2023/07/07 13:04:52;;;;;;;2.45;2.00;;;;;;;;;;4885013;29;20132;-78
2023/07/07 13:07:19;;;;;;;3.53;2.35;;;;;;;;;;4885038;29;20049;-77
2023/07/07 13:09:48;;;;;;;5.63;2.58;;;;;;;;;;4887834;29;20040;-80
2023/07/07 13:12:54;;;;;;;5.60;2.50;;;;;;;;;;4897377;29;20044;-76
2023/07/07 13:15:26;;;;;;;4.93;2.78;;;;;;;;;;4812443;29;20049;-76
2023/07/07 13:17:53;;;;;;;;;;;;;;;;;;4813371;29;20086;-77
2023/07/07 13:20:20;;;;;;;5.13;2.00;;;;;;;;;;4848341;29;19942;-76
2023/07/07 13:22:52;;;;;;;4.20;2.60;;;;;;;;;;4884473;29;20040;-75
2023/07/07 13:25:18;;;;;;;4.07;2.17;;;;;;;;;;4866933;29;20540;-77
2023/07/07 13:27:44;;;;;;;8.40;2.70;;;;;;;;;;4871045;29;20324;-76
2023/07/07 13:30:10;;;;;;;3.30;2.30;;;;;;;;;;4883219;29;20717;-77
2023/07/07 13:32:38;;;;;;;4.82;2.33;;;;;;;;;;4880459;29;21053;-77
2023/07/07 13:35:04;;;;;;;4.40;2.53;;;;;;;;;;4869871;29;20054;-78
2023/07/07 13:37:32;;;;;;;4.72;2.28;;;;;;;;;;4887968;29;20058;-76
2023/07/07 13:39:58;;;;;;;3.72;2.60;;;;;;;;;;4887136;29;22314;-77
2023/07/07 13:42:26;;;;;;;3.85;2.50;;;;;;;;;;4874202;29;20501;-77
2023/07/07 13:44:56;;;;;;;7.13;2.22;;;;;;;;;;4877391;29;20080;-77
2023/07/07 13:47:24;;;;;;;4.70;1.95;;;;;;;;;;4877834;29;20458;-77
2023/07/07 13:49:52;;;;;;;3.83;2.15;;;;;;;;;;4890804;29;20052;-76
2023/07/07 13:52:22;;;;;;;6.80;2.42;;;;;;;;;;4887611;29;20039;-75
2023/07/07 13:54:49;;;;;;;4.85;2.50;;;;;;;;;;4885257;29;20075;-76
2023/07/07 13:57:20;;;;;;;3.85;2.40;;;;;;;;;;4872733;29;20390;-76
2023/07/07 13:59:47;;;;;;;3.83;2.45;;;;;;;;;;4887781;29;20545;-76
2023/07/07 14:02:15;;;;;;;2.70;2.30;;;;;;;;;;4886975;29;20048;-77
2023/07/07 14:04:44;;;;;;;7.25;2.80;;;;;;;;;;4888906;29;20143;-75
2023/07/07 14:07:18;;;;;;;6.53;2.40;;;;;;;;;;4888678;29;20055;-76
2023/07/07 14:09:46;;;;;;;6.38;2.50;;;;;;;;;;4882214;29;20040;-75
2023/07/07 14:12:14;;;;;;;3.45;2.05;;;;;;;;;;4886687;29;20052;-76
2023/07/07 14:14:46;;;;;;;6.07;2.20;;;;;;;;;;4875037;29;20055;-75
2023/07/07 14:17:24;;;;;;;3.42;2.25;;;;;;;;;;4886892;29;20047;-76
2023/07/07 14:19:53;;;;;;;3.50;2.17;;;;;;;;;;4877955;29;20131;-75
2023/07/07 14:22:19;;;;;;;5.43;2.45;;;;;;;;;;4876138;29;20045;-78
2023/07/07 14:24:45;;;;;;;6.28;2.67;;;;;;;;;;4890384;29;20604;-77
2023/07/07 14:27:15;;;;;;;4.63;2.55;;;;;;;;;;4870853;29;20925;-76
2023/07/07 14:29:43;;;;;;;4.43;2.33;;;;;;;;;;4883954;29;20055;-77
2023/07/07 14:32:23;;;;;;;5.43;2.22;;;;;;;;;;4866896;29;20147;-76
2023/07/07 14:34:56;;;;;;;4.50;2.50;;;;;;;;;;4870684;29;20056;-79
2023/07/07 14:37:26;;;;;;;3.90;2.35;;;;;;;;;;4877355;29;20082;-77
2023/07/07 14:39:54;;;;;;;5.35;2.53;;;;;;;;;;4886383;29;20048;-77
2023/07/07 14:42:24;;;;;;;3.33;2.22;;;;;;;;;;4888236;29;20055;-77
2023/07/07 14:44:51;;;;;;;2.58;2.20;;;;;;;;;;4865058;29;20057;-76